Time;durP1;ratioP1;P1;durP2;ratioP2;P2;SDS_P1;SDS_P2;PMS_P1;PMS_P2;Temp;Humidity;BMP_temperature;BMP_pressure;BME280_temperature;BME280_humidity;BME280_pressure;Samples;Min_cycle;Max_cycle;Signal;HPM_P1;HPM_P2
2022/11/20 00:02:07;;;;;;;;;75.33;52.67;;;;;;;;5103719;27;45433;-64
2022/11/20 00:04:33;;;;;;;;;65.00;45.33;;;;;;;;5119690;27;45352;-64
2022/11/20 00:06:58;;;;;;;;;68.67;50.67;;;;;;;;5120086;27;45459;-65
2022/11/20 00:09:23;;;;;;;;;62.00;46.00;;;;;;;;5117916;27;46678;-65
2022/11/20 00:11:48;;;;;;;;;56.33;36.00;;;;;;;;5114377;27;45427;-65
2022/11/20 00:14:14;;;;;;;;;67.67;47.33;;;;;;;;5118226;27;45236;-65
2022/11/20 00:16:39;;;;;;;;;67.00;48.00;;;;;;;;5119554;27;45554;-64
2022/11/20 00:19:04;;;;;;;;;65.00;48.33;;;;;;;;5115955;27;45437;-65
2022/11/20 00:21:30;;;;;;;;;74.67;48.00;;;;;;;;5119348;27;45432;-65
2022/11/20 00:23:56;;;;;;;;;60.00;46.00;;;;;;;;5119932;27;45438;-65
2022/11/20 00:26:22;;;;;;;;;66.67;44.33;;;;;;;;5108803;27;45434;-64
2022/11/20 00:28:52;;;;;;;;;58.00;44.33;;;;;;;;5099233;27;46114;-65
2022/11/20 00:31:17;;;;;;;;;72.00;50.00;;;;;;;;5098835;27;45212;-65
2022/11/20 00:33:43;;;;;;;;;65.33;48.33;;;;;;;;5099269;27;45506;-64
2022/11/20 00:36:11;;;;;;;;;69.67;45.67;;;;;;;;5099582;27;45401;-64
2022/11/20 00:38:37;;;;;;;;;66.67;44.00;;;;;;;;5099135;27;46723;-64
2022/11/20 00:41:04;;;;;;;;;62.33;44.33;;;;;;;;5113008;27;45346;-64
2022/11/20 00:43:29;;;;;;;;;62.00;42.67;;;;;;;;5120018;27;45432;-64
2022/11/20 00:45:58;;;;;;;;;65.67;49.00;;;;;;;;5107457;27;45511;-64
2022/11/20 00:48:23;;;;;;;;;55.33;43.00;;;;;;;;5098816;27;45671;-64
2022/11/20 00:50:48;;;;;;;;;64.00;47.67;;;;;;;;5099045;27;45283;-64
2022/11/20 00:53:14;;;;;;;;;60.00;44.33;;;;;;;;5109165;27;45525;-64
2022/11/20 00:55:39;;;;;;;;;64.33;48.33;;;;;;;;5119943;27;45345;-64
2022/11/20 00:58:04;;;;;;;;;67.33;47.33;;;;;;;;5118160;27;45573;-64
2022/11/20 01:00:29;;;;;;;;;61.33;42.00;;;;;;;;5119391;27;45230;-64
2022/11/20 01:02:55;;;;;;;;;61.67;45.67;;;;;;;;5109905;27;45383;-64
2022/11/20 01:05:20;;;;;;;;;56.33;42.67;;;;;;;;5098912;27;45532;-64
2022/11/20 01:07:45;;;;;;;;;58.67;47.67;;;;;;;;5098772;27;46068;-64
2022/11/20 01:10:11;;;;;;;;;60.33;44.33;;;;;;;;5098753;27;45441;-64
2022/11/20 01:12:36;;;;;;;;;53.33;40.33;;;;;;;;5098929;27;45366;-64
2022/11/20 01:15:01;;;;;;;;;62.00;43.67;;;;;;;;5099165;27;45287;-64
2022/11/20 01:17:26;;;;;;;;;60.33;44.67;;;;;;;;5098238;27;46188;-65
2022/11/20 01:19:52;;;;;;;;;54.00;40.00;;;;;;;;5098044;27;45495;-64
2022/11/20 01:22:17;;;;;;;;;61.00;45.33;;;;;;;;5098646;27;45294;-65
2022/11/20 01:24:42;;;;;;;;;57.33;43.00;;;;;;;;5098598;27;45536;-65
2022/11/20 01:27:07;;;;;;;;;59.33;44.33;;;;;;;;5098484;27;46560;-65
2022/11/20 01:29:32;;;;;;;;;54.67;40.67;;;;;;;;5098339;27;45417;-65
2022/11/20 01:31:58;;;;;;;;;58.33;43.00;;;;;;;;5098499;27;45532;-64
2022/11/20 01:34:23;;;;;;;;;53.67;41.00;;;;;;;;5098434;27;45437;-64
2022/11/20 01:36:49;;;;;;;;;51.33;39.33;;;;;;;;5097659;27;47408;-65
2022/11/20 01:39:32;;;;;;;;;49.33;40.67;;;;;;;;5098297;27;46112;-65
2022/11/20 01:44:42;;;;;;;;;57.00;41.00;;;;;;;;5099274;27;45448;-65
2022/11/20 01:47:09;;;;;;;;;48.00;38.33;;;;;;;;5115350;27;46088;-65
2022/11/20 01:49:38;;;;;;;;;52.67;37.67;;;;;;;;5116994;27;45448;-66
2022/11/20 01:52:05;;;;;;;;;54.00;37.00;;;;;;;;5117836;27;45461;-64
2022/11/20 01:54:36;;;;;;;;;48.00;35.67;;;;;;;;5117008;27;45534;-64
2022/11/20 01:57:02;;;;;;;;;67.33;49.67;;;;;;;;5117039;27;46515;-64
2022/11/20 01:59:29;;;;;;;;;54.67;40.67;;;;;;;;5123839;27;45386;-64
2022/11/20 02:01:54;;;;;;;;;57.33;39.67;;;;;;;;5132069;27;45388;-65
2022/11/20 02:04:20;;;;;;;;;58.33;40.67;;;;;;;;5138987;27;45376;-63
2022/11/20 02:07:11;;;;;;;;;54.33;43.33;;;;;;;;5139122;27;45846;-63
2022/11/20 02:09:37;;;;;;;;;57.33;40.00;;;;;;;;5098682;27;45392;-63
2022/11/20 02:12:03;;;;;;;;;52.33;39.67;;;;;;;;5111477;27;45374;-63
2022/11/20 02:14:28;;;;;;;;;47.00;37.00;;;;;;;;5114890;27;45194;-63
2022/11/20 02:16:54;;;;;;;;;49.00;37.33;;;;;;;;5118050;27;45375;-62
2022/11/20 02:19:19;;;;;;;;;54.33;40.00;;;;;;;;5097173;27;45549;-62
2022/11/20 02:21:48;;;;;;;;;53.67;36.33;;;;;;;;5097621;27;45449;-63
2022/11/20 02:24:15;;;;;;;;;53.33;39.67;;;;;;;;5097282;27;45487;-63
2022/11/20 02:26:42;;;;;;;;;46.67;36.33;;;;;;;;5097068;27;46501;-63
2022/11/20 02:29:07;;;;;;;;;57.33;41.00;;;;;;;;5117596;27;45331;-63
2022/11/20 02:31:37;;;;;;;;;44.67;36.33;;;;;;;;5118260;27;45386;-63
2022/11/20 02:34:02;;;;;;;;;49.33;36.00;;;;;;;;5097568;27;45675;-63
2022/11/20 02:36:28;;;;;;;;;49.33;34.33;;;;;;;;5097358;27;45981;-63
2022/11/20 02:38:53;;;;;;;;;49.67;37.67;;;;;;;;5097427;27;45311;-63
2022/11/20 02:41:18;;;;;;;;;36.33;30.67;;;;;;;;5112515;27;45288;-63
2022/11/20 02:43:44;;;;;;;;;57.00;39.00;;;;;;;;5115576;27;45914;-63
2022/11/20 02:46:09;;;;;;;;;52.00;37.67;;;;;;;;5117818;27;47145;-63
2022/11/20 02:48:34;;;;;;;;;57.67;40.67;;;;;;;;5118209;27;45397;-63
2022/11/20 02:51:00;;;;;;;;;46.67;38.33;;;;;;;;5112186;27;45708;-63
2022/11/20 02:53:25;;;;;;;;;49.33;35.33;;;;;;;;5097084;27;45240;-63
2022/11/20 02:55:50;;;;;;;;;53.67;34.67;;;;;;;;5108619;27;45317;-63
2022/11/20 02:58:15;;;;;;;;;48.67;37.00;;;;;;;;5104020;27;45318;-63
2022/11/20 03:00:40;;;;;;;;;53.67;38.00;;;;;;;;5118001;27;45223;-63
2022/11/20 03:03:06;;;;;;;;;50.00;33.33;;;;;;;;5117970;27;45403;-63
2022/11/20 03:05:31;;;;;;;;;43.33;32.00;;;;;;;;5115840;27;46596;-63
2022/11/20 03:07:56;;;;;;;;;39.67;35.00;;;;;;;;5117838;27;45475;-63
2022/11/20 03:10:21;;;;;;;;;49.67;37.67;;;;;;;;5117765;27;45318;-63
2022/11/20 03:12:46;;;;;;;;;45.67;31.00;;;;;;;;5118151;27;45409;-63
2022/11/20 03:15:12;;;;;;;;;32.33;26.67;;;;;;;;5116126;27;45424;-63
2022/11/20 03:17:37;;;;;;;;;44.67;33.33;;;;;;;;5116866;27;45712;-63
2022/11/20 03:20:03;;;;;;;;;39.00;29.67;;;;;;;;5117371;27;45434;-63
2022/11/20 03:22:29;;;;;;;;;40.00;32.67;;;;;;;;5118650;27;45409;-63
2022/11/20 03:24:54;;;;;;;;;49.33;36.67;;;;;;;;5120981;27;46440;-63
2022/11/20 03:27:19;;;;;;;;;43.00;34.33;;;;;;;;5120130;27;45490;-63
2022/11/20 03:29:44;;;;;;;;;49.00;34.33;;;;;;;;5121341;27;45323;-63
2022/11/20 03:32:10;;;;;;;;;48.33;37.33;;;;;;;;5107567;27;45377;-63
2022/11/20 03:34:35;;;;;;;;;43.00;36.67;;;;;;;;5100106;27;46548;-63
2022/11/20 03:37:00;;;;;;;;;50.67;38.33;;;;;;;;5100099;27;45379;-63
2022/11/20 03:39:26;;;;;;;;;36.00;30.33;;;;;;;;5100404;27;45391;-63
2022/11/20 03:41:51;;;;;;;;;52.33;39.00;;;;;;;;5100026;27;45505;-63
2022/11/20 03:44:16;;;;;;;;;53.00;38.00;;;;;;;;5100106;27;46516;-63
2022/11/20 03:46:42;;;;;;;;;50.67;36.33;;;;;;;;5100100;27;45250;-63
2022/11/20 03:49:07;;;;;;;;;33.67;28.33;;;;;;;;5104838;27;48272;-63
2022/11/20 03:51:34;;;;;;;;;49.33;37.33;;;;;;;;5113180;27;45489;-63
2022/11/20 03:54:00;;;;;;;;;50.33;36.33;;;;;;;;5120681;27;45388;-63
2022/11/20 03:56:27;;;;;;;;;45.00;33.67;;;;;;;;5120582;27;45267;-63
2022/11/20 03:58:53;;;;;;;;;40.67;32.67;;;;;;;;5118644;27;45173;-63
2022/11/20 04:01:20;;;;;;;;;42.00;33.67;;;;;;;;5120728;27;45497;-63
2022/11/20 04:03:45;;;;;;;;;44.67;32.67;;;;;;;;5120475;27;46255;-63
2022/11/20 04:06:12;;;;;;;;;41.67;32.33;;;;;;;;5109099;27;45608;-63
2022/11/20 04:08:38;;;;;;;;;47.00;31.00;;;;;;;;5099717;27;45477;-63
2022/11/20 04:11:13;;;;;;;;;42.00;35.33;;;;;;;;5099985;27;45389;-63
2022/11/20 04:13:39;;;;;;;;;36.33;31.00;;;;;;;;5099715;27;46693;-63
2022/11/20 04:16:08;;;;;;;;;34.33;29.00;;;;;;;;5099560;27;45370;-63
2022/11/20 04:18:34;;;;;;;;;49.67;36.00;;;;;;;;5118414;27;45483;-63
2022/11/20 04:20:59;;;;;;;;;38.00;29.33;;;;;;;;5118440;27;45387;-63
2022/11/20 04:23:25;;;;;;;;;43.00;32.00;;;;;;;;5114769;27;46542;-63
2022/11/20 04:25:50;;;;;;;;;39.00;31.00;;;;;;;;5116218;27;45473;-62
2022/11/20 04:28:15;;;;;;;;;44.00;32.33;;;;;;;;5119132;27;45442;-62
2022/11/20 04:30:40;;;;;;;;;44.67;34.33;;;;;;;;5120188;27;45267;-62
2022/11/20 04:33:06;;;;;;;;;36.67;30.33;;;;;;;;5118629;27;45359;-62
2022/11/20 04:35:34;;;;;;;;;39.67;31.00;;;;;;;;5119681;27;45448;-63
2022/11/20 04:37:59;;;;;;;;;40.33;33.33;;;;;;;;5119706;27;45812;-63
2022/11/20 04:40:24;;;;;;;;;41.67;35.00;;;;;;;;5115408;27;45345;-63
2022/11/20 04:42:49;;;;;;;;;40.00;29.33;;;;;;;;5119571;27;46348;-63
2022/11/20 04:45:14;;;;;;;;;50.00;34.67;;;;;;;;5114207;27;45301;-63
2022/11/20 04:47:40;;;;;;;;;43.00;28.67;;;;;;;;5118870;27;45786;-63
2022/11/20 04:50:05;;;;;;;;;45.33;34.33;;;;;;;;5119901;27;45341;-64
2022/11/20 04:52:30;;;;;;;;;43.33;37.67;;;;;;;;5119385;27;46541;-63
2022/11/20 04:54:56;;;;;;;;;30.00;25.67;;;;;;;;5119602;27;45369;-64
2022/11/20 04:57:21;;;;;;;;;38.33;34.67;;;;;;;;5107862;27;45314;-64
2022/11/20 04:59:46;;;;;;;;;39.00;29.33;;;;;;;;5119654;27;45277;-64
2022/11/20 05:02:12;;;;;;;;;43.00;35.00;;;;;;;;5119368;27;46153;-64
2022/11/20 05:04:37;;;;;;;;;36.67;31.33;;;;;;;;5119337;27;45421;-63
2022/11/20 05:07:02;;;;;;;;;42.00;34.00;;;;;;;;5118459;27;45215;-63
2022/11/20 05:09:27;;;;;;;;;40.00;32.00;;;;;;;;5119818;27;45332;-63
2022/11/20 05:11:52;;;;;;;;;40.67;29.00;;;;;;;;5118100;27;46410;-63
2022/11/20 05:14:18;;;;;;;;;41.67;34.33;;;;;;;;5102741;27;45227;-63
2022/11/20 05:16:43;;;;;;;;;34.67;31.00;;;;;;;;5102622;27;45230;-63
2022/11/20 05:19:08;;;;;;;;;43.67;32.00;;;;;;;;5119319;27;45208;-63
2022/11/20 05:21:33;;;;;;;;;37.00;31.67;;;;;;;;5119235;27;45985;-63
2022/11/20 05:23:59;;;;;;;;;32.00;29.33;;;;;;;;5118245;27;45425;-63
2022/11/20 05:26:24;;;;;;;;;36.67;28.33;;;;;;;;5119356;27;45389;-63
2022/11/20 05:28:49;;;;;;;;;39.00;33.00;;;;;;;;5119401;27;45302;-63
2022/11/20 05:31:16;;;;;;;;;40.00;32.67;;;;;;;;5110385;27;46619;-63
2022/11/20 05:33:42;;;;;;;;;38.33;33.33;;;;;;;;5098252;27;45317;-63
2022/11/20 05:36:08;;;;;;;;;62.33;43.00;;;;;;;;5099325;27;45492;-62
2022/11/20 05:38:33;;;;;;;;;42.33;33.67;;;;;;;;5119093;27;45427;-62
2022/11/20 05:41:04;;;;;;;;;39.67;30.67;;;;;;;;5118696;27;45431;-62
2022/11/20 05:43:31;;;;;;;;;37.00;32.00;;;;;;;;5101052;27;45505;-62
2022/11/20 05:45:56;;;;;;;;;39.33;33.33;;;;;;;;5097497;27;45466;-62
2022/11/20 05:48:22;;;;;;;;;38.67;33.00;;;;;;;;5114564;27;46096;-62
2022/11/20 05:50:47;;;;;;;;;41.67;32.33;;;;;;;;5118606;27;46642;-62
2022/11/20 05:53:13;;;;;;;;;40.00;29.67;;;;;;;;5118643;27;45473;-63
2022/11/20 05:55:38;;;;;;;;;39.33;28.00;;;;;;;;5118949;27;45891;-63
2022/11/20 05:58:03;;;;;;;;;35.33;32.00;;;;;;;;5117726;27;45782;-63
2022/11/20 06:00:28;;;;;;;;;41.00;31.33;;;;;;;;5118436;27;46639;-62
2022/11/20 06:02:53;;;;;;;;;28.00;23.67;;;;;;;;5117345;27;45301;-62
2022/11/20 06:05:19;;;;;;;;;36.00;31.33;;;;;;;;5100498;27;45270;-62
2022/11/20 06:07:44;;;;;;;;;25.00;23.33;;;;;;;;5098079;27;45806;-63
2022/11/20 06:10:09;;;;;;;;;36.67;27.67;;;;;;;;5097780;27;46281;-62
2022/11/20 06:12:35;;;;;;;;;34.33;30.33;;;;;;;;5110189;27;45445;-63
2022/11/20 06:15:00;;;;;;;;;35.33;31.33;;;;;;;;5118693;27;45454;-63
2022/11/20 06:17:25;;;;;;;;;30.67;26.67;;;;;;;;5118705;27;45295;-63
2022/11/20 06:19:51;;;;;;;;;32.00;24.67;;;;;;;;5116053;27;46192;-63
2022/11/20 06:22:16;;;;;;;;;34.33;26.67;;;;;;;;5109436;27;45273;-62
2022/11/20 06:24:41;;;;;;;;;32.67;26.00;;;;;;;;5108670;27;45204;-62
2022/11/20 06:27:06;;;;;;;;;32.67;27.00;;;;;;;;5118499;27;45222;-62
2022/11/20 06:29:31;;;;;;;;;24.67;21.67;;;;;;;;5118056;27;46513;-63
2022/11/20 06:31:57;;;;;;;;;37.33;27.33;;;;;;;;5118192;27;45311;-63
2022/11/20 06:34:22;;;;;;;;;37.00;30.33;;;;;;;;5118545;27;45255;-62
2022/11/20 06:36:47;;;;;;;;;32.33;27.67;;;;;;;;5116586;27;45327;-62
2022/11/20 06:39:12;;;;;;;;;34.00;25.33;;;;;;;;5116658;27;46761;-63
2022/11/20 06:41:37;;;;;;;;;37.67;30.33;;;;;;;;5116321;27;45394;-63
2022/11/20 06:44:04;;;;;;;;;33.33;26.00;;;;;;;;5116626;27;45385;-63
2022/11/20 06:46:29;;;;;;;;;27.00;23.00;;;;;;;;5118449;27;45503;-63
2022/11/20 06:48:54;;;;;;;;;33.33;23.33;;;;;;;;5117801;27;47023;-63
2022/11/20 06:51:21;;;;;;;;;28.00;26.00;;;;;;;;5096874;27;45362;-63
2022/11/20 06:53:46;;;;;;;;;25.67;22.67;;;;;;;;5097146;27;45497;-63
2022/11/20 06:56:11;;;;;;;;;30.33;27.00;;;;;;;;5104313;27;45449;-63
2022/11/20 06:58:36;;;;;;;;;33.00;25.33;;;;;;;;5101032;27;46670;-63
2022/11/20 07:01:03;;;;;;;;;23.67;20.33;;;;;;;;5100381;27;45472;-63
2022/11/20 07:03:28;;;;;;;;;23.00;20.67;;;;;;;;5118658;27;45369;-63
2022/11/20 07:05:57;;;;;;;;;24.00;20.33;;;;;;;;5121723;27;45287;-63
2022/11/20 07:08:22;;;;;;;;;31.67;26.00;;;;;;;;5121113;27;46410;-63
2022/11/20 07:10:47;;;;;;;;;26.00;24.00;;;;;;;;5121345;27;45333;-63
2022/11/20 07:13:13;;;;;;;;;30.00;20.67;;;;;;;;5103644;27;45562;-63
2022/11/20 07:15:38;;;;;;;;;26.00;21.67;;;;;;;;5100969;27;45410;-63
2022/11/20 07:18:03;;;;;;;;;33.00;25.33;;;;;;;;5100317;27;46349;-63
2022/11/20 07:20:29;;;;;;;;;18.00;18.00;;;;;;;;5118704;27;45344;-63
2022/11/20 07:22:55;;;;;;;;;27.00;25.00;;;;;;;;5121342;27;45306;-63
2022/11/20 07:25:21;;;;;;;;;26.33;22.33;;;;;;;;5120210;27;45683;-63
2022/11/20 07:27:46;;;;;;;;;21.00;18.33;;;;;;;;5120020;27;46526;-63
2022/11/20 07:30:11;;;;;;;;;24.67;21.00;;;;;;;;5120257;27;45214;-63
2022/11/20 07:32:37;;;;;;;;;23.33;20.00;;;;;;;;5121165;27;45452;-63
2022/11/20 07:35:02;;;;;;;;;26.00;19.67;;;;;;;;5119115;27;45477;-63
2022/11/20 07:37:27;;;;;;;;;27.67;21.00;;;;;;;;5113362;27;45881;-63
2022/11/20 07:39:52;;;;;;;;;29.67;25.33;;;;;;;;5100172;27;45413;-63
2022/11/20 07:42:17;;;;;;;;;19.00;17.67;;;;;;;;5100409;27;45360;-63
2022/11/20 07:44:43;;;;;;;;;33.67;26.67;;;;;;;;5114896;27;45532;-63
2022/11/20 07:47:08;;;;;;;;;19.33;19.00;;;;;;;;5120872;27;46760;-63
2022/11/20 07:49:33;;;;;;;;;27.67;20.33;;;;;;;;5120628;27;45316;-62
2022/11/20 07:51:58;;;;;;;;;23.33;18.00;;;;;;;;5116223;27;45316;-63
2022/11/20 07:54:24;;;;;;;;;18.33;17.33;;;;;;;;5100050;27;45454;-63
2022/11/20 07:56:49;;;;;;;;;19.00;17.00;;;;;;;;5100180;27;45421;-63
2022/11/20 07:59:15;;;;;;;;;18.00;15.25;;;;;;;;5112361;27;45429;-63
2022/11/20 08:01:41;;;;;;;;;15.75;13.25;;;;;;;;5120567;27;45363;-63
2022/11/20 08:04:06;;;;;;;;;12.00;10.00;;;;;;;;5120864;27;45539;-63
2022/11/20 08:06:31;;;;;;;;;13.00;11.75;;;;;;;;5120449;27;46345;-63
2022/11/20 08:08:56;;;;;;;;;12.25;12.25;;;;;;;;5100596;27;45760;-63
2022/11/20 08:14:12;;;;;;;;;11.00;10.00;;;;;;;;5116553;27;45326;-63
2022/11/20 08:16:41;;;;;;;;;19.75;16.25;;;;;;;;5100901;27;46297;-62
2022/11/20 08:19:07;;;;;;;;;12.00;10.50;;;;;;;;5100397;27;45219;-62
2022/11/20 08:21:33;;;;;;;;;15.25;10.00;;;;;;;;5116971;27;45509;-63
2022/11/20 08:23:58;;;;;;;;;13.25;11.25;;;;;;;;5112068;27;45476;-63
2022/11/20 08:26:24;;;;;;;;;11.75;9.50;;;;;;;;5099353;27;46663;-63
2022/11/20 08:28:49;;;;;;;;;10.25;10.00;;;;;;;;5099305;27;45399;-63
2022/11/20 08:31:14;;;;;;;;;11.50;9.50;;;;;;;;5099818;27;45235;-63
2022/11/20 08:33:39;;;;;;;;;7.50;7.50;;;;;;;;5099600;27;45433;-63
2022/11/20 08:36:05;;;;;;;;;9.50;7.50;;;;;;;;5099206;27;47104;-63
2022/11/20 08:38:30;;;;;;;;;11.25;10.00;;;;;;;;5108166;27;45890;-63
2022/11/20 08:43:40;;;;;;;;;9.75;9.75;;;;;;;;5099604;27;45457;-63
2022/11/20 08:46:06;;;;;;;;;12.50;10.75;;;;;;;;5099249;27;45462;-64
2022/11/20 08:48:31;;;;;;;;;10.25;7.00;;;;;;;;5099138;27;45447;-64
2022/11/20 08:50:57;;;;;;;;;5.75;5.75;;;;;;;;5099401;27;45392;-63
2022/11/20 08:53:23;;;;;;;;;11.50;8.75;;;;;;;;5099151;27;45328;-63
2022/11/20 08:55:48;;;;;;;;;9.75;7.50;;;;;;;;5098612;27;45391;-63
2022/11/20 08:58:13;;;;;;;;;7.00;7.00;;;;;;;;5098873;27;45412;-63
2022/11/20 09:00:38;;;;;;;;;9.00;9.00;;;;;;;;5098947;27;45512;-63
2022/11/20 09:03:04;;;;;;;;;10.75;8.50;;;;;;;;5099266;27;45502;-63
2022/11/20 09:05:29;;;;;;;;;7.00;7.00;;;;;;;;5098371;27;45342;-63
2022/11/20 09:07:58;;;;;;;;;7.25;5.75;;;;;;;;5098828;27;45512;-63
2022/11/20 09:10:23;;;;;;;;;6.50;4.25;;;;;;;;5115906;27;45524;-63
2022/11/20 09:12:49;;;;;;;;;5.25;4.50;;;;;;;;5101555;27;45416;-63
2022/11/20 09:15:14;;;;;;;;;5.25;4.00;;;;;;;;5098848;27;46764;-63
2022/11/20 09:17:39;;;;;;;;;5.00;5.00;;;;;;;;5098608;27;45800;-63
2022/11/20 09:20:04;;;;;;;;;12.50;10.25;;;;;;;;5097568;27;45514;-63
2022/11/20 09:22:30;;;;;;;;;7.00;4.50;;;;;;;;5099025;27;45462;-63
2022/11/20 09:24:55;;;;;;;;;5.00;4.00;;;;;;;;5098471;27;45620;-63
2022/11/20 09:27:21;;;;;;;;;6.50;4.00;;;;;;;;5098228;27;45753;-63
2022/11/20 09:29:46;;;;;;;;;4.25;4.25;;;;;;;;5098602;27;45318;-64
2022/11/20 09:32:11;;;;;;;;;13.50;10.50;;;;;;;;5098638;27;45215;-64
2022/11/20 09:34:36;;;;;;;;;10.25;6.75;;;;;;;;5098403;27;45592;-63
2022/11/20 09:37:02;;;;;;;;;4.75;4.75;;;;;;;;5098320;27;45346;-63
2022/11/20 09:39:27;;;;;;;;;5.75;4.50;;;;;;;;5098500;27;45549;-62
2022/11/20 09:42:07;;;;;;;;;4.00;4.00;;;;;;;;5097575;27;45496;-63
2022/11/20 09:44:51;;;;;;;;;3.75;3.75;;;;;;;;5098170;27;46552;-62
2022/11/20 09:47:40;;;;;;;;;22.00;19.67;;;;;;;;5110896;27;45453;-62
2022/11/20 09:50:17;;;;;;;;;10.25;5.25;;;;;;;;5118869;27;45333;-62
2022/11/20 09:52:51;;;;;;;;;8.25;6.50;;;;;;;;5119039;27;45509;-62
2022/11/20 09:55:17;;;;;;;;;4.25;4.25;;;;;;;;5118839;27;45504;-62
2022/11/20 09:57:44;;;;;;;;;4.25;3.25;;;;;;;;5115134;27;45437;-62
2022/11/20 10:00:12;;;;;;;;;8.00;6.00;;;;;;;;5098140;27;45510;-62
2022/11/20 10:02:37;;;;;;;;;5.50;5.00;;;;;;;;5097645;27;45717;-62
2022/11/20 10:05:08;;;;;;;;;4.50;4.50;;;;;;;;5097996;27;46329;-62
2022/11/20 10:07:39;;;;;;;;;8.75;4.50;;;;;;;;5103150;27;45514;-62
2022/11/20 10:10:04;;;;;;;;;5.75;5.75;;;;;;;;5117199;27;45412;-63
2022/11/20 10:12:29;;;;;;;;;6.00;5.00;;;;;;;;5117422;27;45352;-63
2022/11/20 10:15:12;;;;;;;;;4.75;4.00;;;;;;;;5121777;27;46394;-63
2022/11/20 10:17:56;;;;;;;;;5.00;4.25;;;;;;;;5116811;27;45427;-62
2022/11/20 10:20:24;;;;;;;;;5.50;5.50;;;;;;;;5123347;27;45538;-62
2022/11/20 10:22:53;;;;;;;;;5.25;5.00;;;;;;;;5119060;27;45384;-63
2022/11/20 10:25:19;;;;;;;;;4.25;4.00;;;;;;;;5116703;27;46594;-64
2022/11/20 10:27:44;;;;;;;;;8.75;4.75;;;;;;;;5116873;27;45678;-63
2022/11/20 10:30:17;;;;;;;;;6.75;6.00;;;;;;;;5116527;27;45781;-64
2022/11/20 10:32:47;;;;;;;;;5.75;4.25;;;;;;;;5117078;27;45358;-62
2022/11/20 10:35:31;;;;;;;;;6.75;5.00;;;;;;;;5117141;27;46302;-62
2022/11/20 10:37:59;;;;;;;;;6.00;3.50;;;;;;;;5119218;27;45423;-63
2022/11/20 10:40:27;;;;;;;;;6.75;5.00;;;;;;;;5115265;27;45421;-63
2022/11/20 10:42:57;;;;;;;;;6.25;5.00;;;;;;;;5119369;27;45428;-62
2022/11/20 10:45:22;;;;;;;;;5.25;3.00;;;;;;;;5116600;27;46609;-64
2022/11/20 10:47:48;;;;;;;;;5.50;4.50;;;;;;;;5116461;27;45463;-64
2022/11/20 10:50:16;;;;;;;;;6.25;4.75;;;;;;;;5116712;27;45458;-63
2022/11/20 10:52:47;;;;;;;;;12.25;9.25;;;;;;;;5118909;27;45354;-63
2022/11/20 10:55:21;;;;;;;;;6.25;6.25;;;;;;;;5116296;27;46560;-63
2022/11/20 10:57:56;;;;;;;;;8.50;7.00;;;;;;;;5117185;27;46435;-61
2022/11/20 11:00:21;;;;;;;;;4.75;3.00;;;;;;;;5117843;27;45389;-61
2022/11/20 11:02:48;;;;;;;;;8.75;5.25;;;;;;;;5118093;27;45324;-61
2022/11/20 11:05:22;;;;;;;;;3.00;3.00;;;;;;;;5115586;27;47054;-61
2022/11/20 11:07:52;;;;;;;;;3.00;3.00;;;;;;;;5115626;27;45327;-61
2022/11/20 11:10:20;;;;;;;;;3.00;3.00;;;;;;;;5097255;27;45354;-61
2022/11/20 11:12:47;;;;;;;;;2.00;2.00;;;;;;;;5097383;27;45419;-61
2022/11/20 11:15:15;;;;;;;;;4.00;4.00;;;;;;;;5096957;27;46756;-61
2022/11/20 11:17:46;;;;;;;;;5.00;3.00;;;;;;;;5107318;27;45604;-61
2022/11/20 11:20:15;;;;;;;;;4.25;4.00;;;;;;;;5097233;27;45317;-61
2022/11/20 11:22:45;;;;;;;;;11.25;9.25;;;;;;;;5097194;27;45441;-60
2022/11/20 11:25:20;;;;;;;;;3.00;3.00;;;;;;;;5096477;27;46467;-61
2022/11/20 11:27:49;;;;;;;;;5.75;4.00;;;;;;;;5096915;27;45282;-63
2022/11/20 11:30:15;;;;;;;;;4.00;4.00;;;;;;;;5097097;27;45442;-62
2022/11/20 11:32:41;;;;;;;;;5.00;3.50;;;;;;;;5097095;27;45371;-62
2022/11/20 11:35:18;;;;;;;;;4.50;4.00;;;;;;;;5096920;27;45450;-62
2022/11/20 11:37:43;;;;;;;;;5.25;4.00;;;;;;;;5096806;27;45373;-63
2022/11/20 11:40:10;;;;;;;;;2.00;2.00;;;;;;;;5096889;27;45436;-61
2022/11/20 11:42:41;;;;;;;;;12.00;12.00;;;;;;;;5097826;27;45444;-61
2022/11/20 11:45:06;;;;;;;;;2.25;2.25;;;;;;;;5099225;27;46298;-61
2022/11/20 11:47:34;;;;;;;;;13.00;11.67;;;;;;;;5100011;27;45480;-62
2022/11/20 11:50:01;;;;;;;;;5.75;4.25;;;;;;;;5104046;27;45577;-63
2022/11/20 11:52:27;;;;;;;;;4.00;4.00;;;;;;;;5114412;27;45451;-63
2022/11/20 11:54:57;;;;;;;;;3.25;3.25;;;;;;;;5105574;27;45479;-63
2022/11/20 11:57:28;;;;;;;;;4.75;3.00;;;;;;;;5111151;27;46437;-62
2022/11/20 12:00:05;;;;;;;;;4.25;4.25;;;;;;;;5101692;27;45548;-62
2022/11/20 12:02:30;;;;;;;;;4.00;3.00;;;;;;;;5114306;27;45477;-63
2022/11/20 12:04:59;;;;;;;;;2.00;2.00;;;;;;;;5139581;27;46616;-63
2022/11/20 12:07:41;;;;;;;;;3.75;3.75;;;;;;;;5133472;27;45485;-63
2022/11/20 12:10:12;;;;;;;;;3.00;3.00;;;;;;;;5119916;27;45408;-63
2022/11/20 12:12:40;;;;;;;;;3.25;3.00;;;;;;;;5120024;27;45360;-63
2022/11/20 12:15:10;;;;;;;;;2.50;2.50;;;;;;;;5119611;27;46508;-63
2022/11/20 12:17:36;;;;;;;;;11.50;10.25;;;;;;;;5118788;27;45563;-63
2022/11/20 12:20:01;;;;;;;;;5.00;3.50;;;;;;;;5132534;27;45281;-63
2022/11/20 12:22:43;;;;;;;;;3.25;3.25;;;;;;;;5118048;27;45749;-63
2022/11/20 12:25:16;;;;;;;;;2.00;2.00;;;;;;;;5121764;27;46491;-62
2022/11/20 12:27:52;;;;;;;;;5.25;5.25;;;;;;;;5131741;27;45664;-64
2022/11/20 12:30:18;;;;;;;;;3.25;3.25;;;;;;;;5098441;27;45504;-63
2022/11/20 12:32:49;;;;;;;;;6.75;5.50;;;;;;;;5099212;27;45414;-62
2022/11/20 12:35:36;;;;;;;;;2.75;2.75;;;;;;;;5098899;27;45503;-63
2022/11/20 12:38:14;;;;;;;;;5.75;4.25;;;;;;;;5108909;27;46240;-64
2022/11/20 12:40:56;;;;;;;;;6.00;6.00;;;;;;;;5124804;27;45464;-63
2022/11/20 12:46:08;;;;;;;;;3.25;3.25;;;;;;;;5140093;27;45765;-62
2022/11/20 12:48:40;;;;;;;;;3.00;3.00;;;;;;;;5135142;27;45458;-63
2022/11/20 12:51:05;;;;;;;;;2.00;2.00;;;;;;;;5112712;27;45455;-63
2022/11/20 12:53:40;;;;;;;;;5.00;3.50;;;;;;;;5099410;27;45209;-63
2022/11/20 12:56:17;;;;;;;;;3.00;3.00;;;;;;;;5098497;27;46534;-63
2022/11/20 12:59:05;;;;;;;;;3.50;3.50;;;;;;;;5098629;27;46109;-63
2022/11/20 13:01:40;;;;;;;;;3.00;3.00;;;;;;;;5035179;28;45420;-63
2022/11/20 13:04:24;;;;;;;;;3.25;3.00;;;;;;;;5038458;28;45432;-62
2022/11/20 13:06:50;;;;;;;;;5.00;3.00;;;;;;;;5055413;28;45555;-63
2022/11/20 13:09:18;;;;;;;;;3.75;3.75;;;;;;;;5054900;28;45651;-63
2022/11/20 13:11:43;;;;;;;;;3.75;3.75;;;;;;;;5074539;28;45447;-63
2022/11/20 13:14:33;;;;;;;;;2.00;2.00;;;;;;;;5058032;28;45427;-63
2022/11/20 13:17:09;;;;;;;;;4.50;3.00;;;;;;;;5055232;28;45703;-63
2022/11/20 13:19:35;;;;;;;;;16.25;16.25;;;;;;;;5058330;28;45466;-62
2022/11/20 13:22:00;;;;;;;;;3.75;2.25;;;;;;;;5055079;28;45430;-63
2022/11/20 13:24:27;;;;;;;;;4.00;4.00;;;;;;;;5055387;28;45555;-63
2022/11/20 13:27:17;;;;;;;;;3.50;3.25;;;;;;;;5054540;28;47615;-63
2022/11/20 13:29:57;;;;;;;;;3.25;2.75;;;;;;;;5052755;28;45399;-63
2022/11/20 13:32:23;;;;;;;;;4.00;4.00;;;;;;;;5051997;28;45627;-63
2022/11/20 13:35:08;;;;;;;;;0.00;0.00;;;;;;;;5055979;28;45435;-63
2022/11/20 13:37:35;;;;;;;;;5.00;5.00;;;;;;;;5059156;27;45513;-64
2022/11/20 13:40:12;;;;;;;;;5.00;5.00;;;;;;;;5097763;27;45474;-61
2022/11/20 13:42:39;;;;;;;;;3.75;2.50;;;;;;;;5097865;27;45473;-62
2022/11/20 13:45:09;;;;;;;;;4.00;4.00;;;;;;;;5098000;27;45628;-61
2022/11/20 13:47:35;;;;;;;;;5.00;3.25;;;;;;;;5101806;27;45613;-61
2022/11/20 13:50:02;;;;;;;;;4.50;4.50;;;;;;;;5118264;27;45373;-61
2022/11/20 13:52:28;;;;;;;;;3.00;3.00;;;;;;;;5118464;27;45443;-61
2022/11/20 13:55:11;;;;;;;;;5.00;4.00;;;;;;;;5119088;27;45506;-61
2022/11/20 13:57:51;;;;;;;;;4.25;4.00;;;;;;;;5108302;27;45396;-61
2022/11/20 14:00:18;;;;;;;;;7.00;4.00;;;;;;;;5098233;27;45511;-61
2022/11/20 14:02:47;;;;;;;;;15.00;8.00;;;;;;;;5118487;27;45489;-62
2022/11/20 14:05:21;;;;;;;;;6.50;5.75;;;;;;;;5117694;27;45439;-61
2022/11/20 14:07:47;;;;;;;;;15.25;15.25;;;;;;;;5117601;27;46619;-62
2022/11/20 14:10:23;;;;;;;;;8.00;7.75;;;;;;;;5118140;27;45385;-62
2022/11/20 14:12:50;;;;;;;;;8.75;8.75;;;;;;;;5116942;27;45531;-62
2022/11/20 14:15:26;;;;;;;;;7.75;5.00;;;;;;;;5138606;27;45411;-62
2022/11/20 14:17:52;;;;;;;;;2.00;1.75;;;;;;;;5127396;27;46034;-62
2022/11/20 14:20:22;;;;;;;;;4.00;4.00;;;;;;;;5118657;27;45512;-62
2022/11/20 14:22:49;;;;;;;;;4.00;4.00;;;;;;;;5117448;27;47049;-62
2022/11/20 14:25:15;;;;;;;;;6.25;2.50;;;;;;;;5117559;27;45540;-62
2022/11/20 14:27:41;;;;;;;;;4.00;3.00;;;;;;;;5117344;27;47421;-62
2022/11/20 14:30:14;;;;;;;;;2.00;2.00;;;;;;;;5116022;27;45507;-62
2022/11/20 14:32:40;;;;;;;;;3.75;2.00;;;;;;;;5117890;27;45355;-62
2022/11/20 14:35:13;;;;;;;;;2.00;2.00;;;;;;;;5117562;27;45397;-63
2022/11/20 14:37:40;;;;;;;;;3.25;3.00;;;;;;;;5096666;27;45759;-63
2022/11/20 14:40:21;;;;;;;;;1.80;1.80;;;;;;;;5096947;27;45286;-61